sensor_id;sensor_type;location;lat;lon;timestamp;pressure;altitude;pressure_sealevel;temperature;humidity
33161;BME280;19522;45.656;11.302;2023-05-23T00:00:35;98085.13;;;17.00;63.75
33161;BME280;19522;45.656;11.302;2023-05-23T00:03:01;98032.91;;;16.83;63.14
33161;BME280;19522;45.656;11.302;2023-05-23T00:05:27;98088.38;;;17.09;63.43
33161;BME280;19522;45.656;11.302;2023-05-23T00:07:53;98153.59;;;17.42;63.49
33161;BME280;19522;45.656;11.302;2023-05-23T00:10:19;98068.41;;;16.90;63.69
33161;BME280;19522;45.656;11.302;2023-05-23T00:12:44;98064.16;;;16.94;63.60
33161;BME280;19522;45.656;11.302;2023-05-23T00:15:12;98114.81;;;17.27;63.81
33161;BME280;19522;45.656;11.302;2023-05-23T00:17:38;98131.28;;;17.39;64.66
33161;BME280;19522;45.656;11.302;2023-05-23T00:20:05;98152.19;;;17.40;64.17
33161;BME280;19522;45.656;11.302;2023-05-23T00:22:34;98025.84;;;16.40;65.50
33161;BME280;19522;45.656;11.302;2023-05-23T00:25:00;98028.84;;;16.62;64.77
33161;BME280;19522;45.656;11.302;2023-05-23T00:27:26;98128.69;;;17.20;64.53
33161;BME280;19522;45.656;11.302;2023-05-23T00:29:51;98124.25;;;17.07;65.20
33161;BME280;19522;45.656;11.302;2023-05-23T00:32:17;98132.25;;;17.21;64.46
33161;BME280;19522;45.656;11.302;2023-05-23T00:34:43;98021.44;;;16.50;64.68
33161;BME280;19522;45.656;11.302;2023-05-23T00:37:09;98137.03;;;17.25;64.64
33161;BME280;19522;45.656;11.302;2023-05-23T00:39:39;98148.63;;;17.16;65.15
33161;BME280;19522;45.656;11.302;2023-05-23T00:42:04;98132.72;;;16.94;65.79
33161;BME280;19522;45.656;11.302;2023-05-23T00:44:30;98109.66;;;16.59;66.64
33161;BME280;19522;45.656;11.302;2023-05-23T00:46:56;97928.44;;;15.35;66.95
33161;BME280;19522;45.656;11.302;2023-05-23T00:49:23;98016.38;;;16.00;66.95
33161;BME280;19522;45.656;11.302;2023-05-23T00:51:49;98086.84;;;16.35;66.73
33161;BME280;19522;45.656;11.302;2023-05-23T00:54:36;98132.66;;;16.70;66.77
33161;BME280;19522;45.656;11.302;2023-05-23T00:57:03;98091.63;;;16.40;66.84
33161;BME280;19522;45.656;11.302;2023-05-23T00:59:29;98107.50;;;16.49;67.03
33161;BME280;19522;45.656;11.302;2023-05-23T01:01:56;98072.88;;;16.25;67.59
33161;BME280;19522;45.656;11.302;2023-05-23T01:04:24;98041.88;;;16.12;67.46
33161;BME280;19522;45.656;11.302;2023-05-23T01:06:54;98073.72;;;16.25;67.83
33161;BME280;19522;45.656;11.302;2023-05-23T01:09:20;98125.38;;;16.52;68.77
33161;BME280;19522;45.656;11.302;2023-05-23T01:12:32;98120.00;;;16.57;68.73
33161;BME280;19522;45.656;11.302;2023-05-23T01:15:07;98114.53;;;16.69;67.88
33161;BME280;19522;45.656;11.302;2023-05-23T01:17:51;98118.47;;;16.61;68.54
33161;BME280;19522;45.656;11.302;2023-05-23T01:20:27;98126.81;;;16.55;68.88
33161;BME280;19522;45.656;11.302;2023-05-23T01:28:35;98129.63;;;16.36;69.56
33161;BME280;19522;45.656;11.302;2023-05-23T01:31:03;98115.03;;;16.24;70.24
33161;BME280;19522;45.656;11.302;2023-05-23T01:33:31;98037.75;;;15.61;70.58
33161;BME280;19522;45.656;11.302;2023-05-23T01:36:00;98006.16;;;15.46;70.53
33161;BME280;19522;45.656;11.302;2023-05-23T01:38:27;98080.81;;;16.14;69.08
33161;BME280;19522;45.656;11.302;2023-05-23T01:40:53;98111.78;;;16.45;69.01
33161;BME280;19522;45.656;11.302;2023-05-23T01:43:19;97941.78;;;15.43;68.75
33161;BME280;19522;45.656;11.302;2023-05-23T01:45:45;98045.44;;;16.01;69.05
33161;BME280;19522;45.656;11.302;2023-05-23T01:48:12;98071.53;;;16.15;69.33
33161;BME280;19522;45.656;11.302;2023-05-23T01:50:40;97982.06;;;15.67;68.71
33161;BME280;19522;45.656;11.302;2023-05-23T01:53:11;97960.19;;;15.67;68.29
33161;BME280;19522;45.656;11.302;2023-05-23T01:55:39;97969.59;;;15.71;68.35
33161;BME280;19522;45.656;11.302;2023-05-23T01:58:05;98108.78;;;16.47;69.30
33161;BME280;19522;45.656;11.302;2023-05-23T02:00:31;98084.28;;;16.22;69.90
33161;BME280;19522;45.656;11.302;2023-05-23T02:02:57;98017.88;;;15.84;69.94
33161;BME280;19522;45.656;11.302;2023-05-23T02:05:23;98051.50;;;16.03;69.89
33161;BME280;19522;45.656;11.302;2023-05-23T02:07:49;98095.66;;;16.25;70.26
33161;BME280;19522;45.656;11.302;2023-05-23T02:10:14;98055.75;;;15.87;71.08
33161;BME280;19522;45.656;11.302;2023-05-23T02:12:40;98073.97;;;15.93;70.83
33161;BME280;19522;45.656;11.302;2023-05-23T02:15:06;98011.53;;;15.53;70.49
33161;BME280;19522;45.656;11.302;2023-05-23T02:17:32;98001.94;;;15.62;70.14
33161;BME280;19522;45.656;11.302;2023-05-23T02:19:58;98014.31;;;15.65;70.70
33161;BME280;19522;45.656;11.302;2023-05-23T02:22:24;98100.63;;;16.16;70.84
33161;BME280;19522;45.656;11.302;2023-05-23T02:24:50;98114.63;;;16.08;71.45
33161;BME280;19522;45.656;11.302;2023-05-23T02:27:16;98097.50;;;16.13;71.29
33161;BME280;19522;45.656;11.302;2023-05-23T02:29:42;98003.56;;;15.51;71.38
33161;BME280;19522;45.656;11.302;2023-05-23T02:32:08;98063.53;;;15.83;71.10
33161;BME280;19522;45.656;11.302;2023-05-23T02:34:33;98057.19;;;15.89;70.52
33161;BME280;19522;45.656;11.302;2023-05-23T02:36:59;98012.91;;;15.74;70.41
33161;BME280;19522;45.656;11.302;2023-05-23T02:39:27;98008.03;;;15.64;70.08
33161;BME280;19522;45.656;11.302;2023-05-23T02:41:52;97956.84;;;15.34;70.64
33161;BME280;19522;45.656;11.302;2023-05-23T02:44:18;98055.25;;;15.60;71.90
33161;BME280;19522;45.656;11.302;2023-05-23T02:46:44;98099.78;;;15.85;72.43
33161;BME280;19522;45.656;11.302;2023-05-23T02:49:13;98097.56;;;15.94;71.68
33161;BME280;19522;45.656;11.302;2023-05-23T02:51:41;98093.06;;;16.00;71.17
33161;BME280;19522;45.656;11.302;2023-05-23T02:54:07;98085.34;;;16.09;70.57
33161;BME280;19522;45.656;11.302;2023-05-23T02:56:32;98052.41;;;15.85;70.75
33161;BME280;19522;45.656;11.302;2023-05-23T02:58:58;98067.56;;;15.99;70.74
33161;BME280;19522;45.656;11.302;2023-05-23T03:01:23;98094.50;;;16.02;70.92
33161;BME280;19522;45.656;11.302;2023-05-23T03:03:49;98069.59;;;16.04;70.33
33161;BME280;19522;45.656;11.302;2023-05-23T03:06:15;97990.22;;;15.43;71.09
33161;BME280;19522;45.656;11.302;2023-05-23T03:08:41;98003.25;;;15.60;70.71
33161;BME280;19522;45.656;11.302;2023-05-23T03:11:07;97981.22;;;15.36;70.47
33161;BME280;19522;45.656;11.302;2023-05-23T03:13:34;98094.59;;;15.96;71.47
33161;BME280;19522;45.656;11.302;2023-05-23T03:15:59;98097.94;;;15.98;71.25
33161;BME280;19522;45.656;11.302;2023-05-23T03:18:25;97968.81;;;15.21;70.80
33161;BME280;19522;45.656;11.302;2023-05-23T03:20:50;98089.75;;;16.10;70.83
33161;BME280;19522;45.656;11.302;2023-05-23T03:23:16;97992.19;;;15.36;71.17
33161;BME280;19522;45.656;11.302;2023-05-23T03:25:42;98087.47;;;16.07;71.26
33161;BME280;19522;45.656;11.302;2023-05-23T03:28:08;98096.38;;;16.02;71.61
33161;BME280;19522;45.656;11.302;2023-05-23T03:30:33;98093.97;;;15.94;72.31
33161;BME280;19522;45.656;11.302;2023-05-23T03:32:59;98105.50;;;15.84;73.54
33161;BME280;19522;45.656;11.302;2023-05-23T03:35:26;98103.72;;;15.89;72.74
33161;BME280;19522;45.656;11.302;2023-05-23T03:37:51;98046.88;;;15.54;72.56
33161;BME280;19522;45.656;11.302;2023-05-23T03:40:17;98078.47;;;15.69;72.77
33161;BME280;19522;45.656;11.302;2023-05-23T03:42:43;98109.22;;;15.89;72.76
33161;BME280;19522;45.656;11.302;2023-05-23T03:45:08;98104.09;;;15.93;72.43
33161;BME280;19522;45.656;11.302;2023-05-23T03:47:34;97936.94;;;14.96;72.02
33161;BME280;19522;45.656;11.302;2023-05-23T03:49:59;98012.56;;;15.40;72.10
33161;BME280;19522;45.656;11.302;2023-05-23T03:52:25;98029.72;;;15.47;72.03
33161;BME280;19522;45.656;11.302;2023-05-23T03:54:50;98035.38;;;15.64;71.51
33161;BME280;19522;45.656;11.302;2023-05-23T03:57:16;98045.59;;;15.57;72.41
33161;BME280;19522;45.656;11.302;2023-05-23T03:59:44;98091.84;;;15.77;72.44
33161;BME280;19522;45.656;11.302;2023-05-23T04:02:10;98106.75;;;15.81;73.24
33161;BME280;19522;45.656;11.302;2023-05-23T04:04:36;98026.53;;;15.32;73.33
33161;BME280;19522;45.656;11.302;2023-05-23T04:07:04;98009.47;;;15.18;73.61
33161;BME280;19522;45.656;11.302;2023-05-23T04:09:30;98112.69;;;15.78;74.00
33161;BME280;19522;45.656;11.302;2023-05-23T04:11:56;98098.84;;;15.73;73.99
33161;BME280;19522;45.656;11.302;2023-05-23T04:14:22;98088.50;;;15.75;73.49
33161;BME280;19522;45.656;11.302;2023-05-23T04:16:51;97962.75;;;15.01;73.75
33161;BME280;19522;45.656;11.302;2023-05-23T04:19:17;98111.38;;;15.99;74.01
33161;BME280;19522;45.656;11.302;2023-05-23T04:21:43;97987.50;;;15.06;74.57
33161;BME280;19522;45.656;11.302;2023-05-23T04:24:08;98110.41;;;15.94;74.61
33161;BME280;19522;45.656;11.302;2023-05-23T04:26:34;98025.63;;;15.38;74.76
33161;BME280;19522;45.656;11.302;2023-05-23T04:29:02;98008.47;;;15.31;74.82
33161;BME280;19522;45.656;11.302;2023-05-23T04:31:27;98061.47;;;15.48;75.80
33161;BME280;19522;45.656;11.302;2023-05-23T04:33:53;98110.19;;;15.77;76.49
33161;BME280;19522;45.656;11.302;2023-05-23T04:36:22;98096.72;;;15.75;76.52
33161;BME280;19522;45.656;11.302;2023-05-23T04:38:48;98028.13;;;15.21;77.08
33161;BME280;19522;45.656;11.302;2023-05-23T04:41:33;98107.53;;;15.70;77.58
33161;BME280;19522;45.656;11.302;2023-05-23T04:44:01;98026.25;;;15.03;77.90
33161;BME280;19522;45.656;11.302;2023-05-23T04:46:26;98114.06;;;15.69;78.09
33161;BME280;19522;45.656;11.302;2023-05-23T04:48:58;97944.91;;;14.61;77.86
33161;BME280;19522;45.656;11.302;2023-05-23T04:51:24;98110.63;;;15.73;78.02
33161;BME280;19522;45.656;11.302;2023-05-23T04:53:50;98109.72;;;15.80;77.88
33161;BME280;19522;45.656;11.302;2023-05-23T04:56:16;97943.19;;;14.67;78.51
33161;BME280;19522;45.656;11.302;2023-05-23T04:58:42;98034.28;;;15.35;78.46
33161;BME280;19522;45.656;11.302;2023-05-23T05:01:10;98051.06;;;15.57;78.23
33161;BME280;19522;45.656;11.302;2023-05-23T05:03:36;98079.97;;;15.83;78.39
33161;BME280;19522;45.656;11.302;2023-05-23T05:06:02;97992.41;;;15.34;77.96
33161;BME280;19522;45.656;11.302;2023-05-23T05:08:28;98063.41;;;15.78;78.14
33161;BME280;19522;45.656;11.302;2023-05-23T05:10:54;97942.22;;;15.10;78.04
33161;BME280;19522;45.656;11.302;2023-05-23T05:13:20;98106.78;;;16.12;78.36
33161;BME280;19522;45.656;11.302;2023-05-23T05:15:45;98093.44;;;16.03;78.91
33161;BME280;19522;45.656;11.302;2023-05-23T05:18:12;98091.19;;;16.12;78.68
33161;BME280;19522;45.656;11.302;2023-05-23T05:20:38;98089.94;;;16.27;78.59
33161;BME280;19522;45.656;11.302;2023-05-23T05:23:06;97993.63;;;15.69;78.73
33161;BME280;19522;45.656;11.302;2023-05-23T05:25:34;98089.59;;;16.35;78.70
33161;BME280;19522;45.656;11.302;2023-05-23T05:28:01;98065.28;;;16.27;78.37
33161;BME280;19522;45.656;11.302;2023-05-23T05:30:32;98091.53;;;16.46;77.88
33161;BME280;19522;45.656;11.302;2023-05-23T05:33:00;97992.19;;;15.97;77.68
33161;BME280;19522;45.656;11.302;2023-05-23T05:35:26;97982.06;;;15.97;77.77
33161;BME280;19522;45.656;11.302;2023-05-23T05:37:52;98085.59;;;16.73;77.21
33161;BME280;19522;45.656;11.302;2023-05-23T05:40:18;98088.44;;;16.78;77.00
33161;BME280;19522;45.656;11.302;2023-05-23T05:42:43;98005.13;;;16.44;76.60
33161;BME280;19522;45.656;11.302;2023-05-23T05:45:09;97967.00;;;16.18;76.88
33161;BME280;19522;45.656;11.302;2023-05-23T05:47:35;98081.44;;;16.94;75.53
33161;BME280;19522;45.656;11.302;2023-05-23T05:50:06;98066.78;;;17.01;75.30
33161;BME280;19522;45.656;11.302;2023-05-23T05:52:35;98080.47;;;17.24;75.32
33161;BME280;19522;45.656;11.302;2023-05-23T05:55:09;98083.69;;;17.33;74.84
33161;BME280;19522;45.656;11.302;2023-05-23T05:57:38;98073.88;;;17.37;75.08
33161;BME280;19522;45.656;11.302;2023-05-23T06:02:37;98067.47;;;17.72;73.31
33161;BME280;19522;45.656;11.302;2023-05-23T06:05:03;98066.94;;;17.87;73.78
33161;BME280;19522;45.656;11.302;2023-05-23T06:07:29;98076.94;;;17.94;73.14
33161;BME280;19522;45.656;11.302;2023-05-23T06:09:54;98061.44;;;17.87;72.87
33161;BME280;19522;45.656;11.302;2023-05-23T06:12:20;98018.28;;;17.71;72.25
33161;BME280;19522;45.656;11.302;2023-05-23T06:14:46;98065.03;;;18.17;71.74
33161;BME280;19522;45.656;11.302;2023-05-23T06:17:11;97932.44;;;17.47;70.58
33161;BME280;19522;45.656;11.302;2023-05-23T06:19:37;98053.22;;;18.33;69.87
33161;BME280;19522;45.656;11.302;2023-05-23T06:22:03;98070.38;;;18.58;69.01
33161;BME280;19522;45.656;11.302;2023-05-23T06:24:28;98066.63;;;18.81;69.13
33161;BME280;19522;45.656;11.302;2023-05-23T06:26:54;98000.91;;;18.62;68.36
33161;BME280;19522;45.656;11.302;2023-05-23T06:29:19;98066.19;;;19.23;68.12
33161;BME280;19522;45.656;11.302;2023-05-23T06:31:45;98065.06;;;19.41;67.15
33161;BME280;19522;45.656;11.302;2023-05-23T06:34:10;97961.41;;;19.08;65.98
33161;BME280;19522;45.656;11.302;2023-05-23T06:36:36;98037.75;;;19.84;64.95
33161;BME280;19522;45.656;11.302;2023-05-23T06:39:01;97968.28;;;19.82;63.86
33161;BME280;19522;45.656;11.302;2023-05-23T06:41:27;98053.88;;;20.58;60.97
33161;BME280;19522;45.656;11.302;2023-05-23T06:43:53;98019.19;;;20.62;57.46
33161;BME280;19522;45.656;11.302;2023-05-23T06:46:18;97963.97;;;20.57;57.10
33161;BME280;19522;45.656;11.302;2023-05-23T06:48:44;98008.47;;;21.08;56.24
33161;BME280;19522;45.656;11.302;2023-05-23T06:51:09;97922.56;;;20.94;56.03
33161;BME280;19522;45.656;11.302;2023-05-23T06:53:35;97894.19;;;21.14;56.07
33161;BME280;19522;45.656;11.302;2023-05-23T06:56:01;97930.47;;;21.44;55.80
33161;BME280;19522;45.656;11.302;2023-05-23T06:58:26;97779.75;;;20.64;53.95
33161;BME280;19522;45.656;11.302;2023-05-23T07:00:53;97946.03;;;21.97;53.09
33161;BME280;19522;45.656;11.302;2023-05-23T07:03:19;97983.41;;;22.61;52.62
33161;BME280;19522;45.656;11.302;2023-05-23T07:05:44;98043.63;;;23.26;51.90
33161;BME280;19522;45.656;11.302;2023-05-23T07:08:10;97949.03;;;22.93;50.91
33161;BME280;19522;45.656;11.302;2023-05-23T07:10:36;98029.63;;;23.68;50.31
33161;BME280;19522;45.656;11.302;2023-05-23T07:13:03;98033.38;;;23.92;49.92
33161;BME280;19522;45.656;11.302;2023-05-23T07:15:28;98009.13;;;23.63;45.41
33161;BME280;19522;45.656;11.302;2023-05-23T07:17:54;97968.72;;;23.52;45.98
33161;BME280;19522;45.656;11.302;2023-05-23T07:20:22;97973.00;;;23.84;45.06
33161;BME280;19522;45.656;11.302;2023-05-23T07:22:48;98027.09;;;24.26;44.48
33161;BME280;19522;45.656;11.302;2023-05-23T07:25:16;98009.69;;;24.16;44.15
33161;BME280;19522;45.656;11.302;2023-05-23T07:27:42;98030.44;;;24.23;45.09
33161;BME280;19522;45.656;11.302;2023-05-23T07:30:07;97956.78;;;24.07;44.82
33161;BME280;19522;45.656;11.302;2023-05-23T07:32:44;98008.09;;;24.44;45.37
33161;BME280;19522;45.656;11.302;2023-05-23T07:35:10;98013.94;;;24.42;45.97
33161;BME280;19522;45.656;11.302;2023-05-23T07:37:37;98022.59;;;24.65;44.38
33161;BME280;19522;45.656;11.302;2023-05-23T07:40:04;98003.06;;;24.81;44.74
33161;BME280;19522;45.656;11.302;2023-05-23T07:42:30;98008.31;;;24.82;44.07
33161;BME280;19522;45.656;11.302;2023-05-23T07:44:55;97970.63;;;24.76;45.60
33161;BME280;19522;45.656;11.302;2023-05-23T07:47:21;97975.84;;;24.48;43.21
33161;BME280;19522;45.656;11.302;2023-05-23T07:49:49;98017.19;;;24.84;45.19
33161;BME280;19522;45.656;11.302;2023-05-23T07:52:16;97916.56;;;24.39;45.62
33161;BME280;19522;45.656;11.302;2023-05-23T07:54:42;98010.34;;;25.01;46.93
33161;BME280;19522;45.656;11.302;2023-05-23T07:57:08;97983.25;;;24.58;45.36
33161;BME280;19522;45.656;11.302;2023-05-23T07:59:33;98020.34;;;24.72;47.70
33161;BME280;19522;45.656;11.302;2023-05-23T08:02:00;98005.41;;;24.68;46.16
33161;BME280;19522;45.656;11.302;2023-05-23T08:04:28;97930.41;;;24.44;46.24
33161;BME280;19522;45.656;11.302;2023-05-23T08:06:53;97906.94;;;24.31;47.72
33161;BME280;19522;45.656;11.302;2023-05-23T08:09:21;97979.09;;;25.14;49.09
33161;BME280;19522;45.656;11.302;2023-05-23T08:11:46;98000.38;;;25.48;45.01
33161;BME280;19522;45.656;11.302;2023-05-23T08:14:12;97999.06;;;25.65;45.97
33161;BME280;19522;45.656;11.302;2023-05-23T08:16:37;97949.69;;;25.57;46.37
33161;BME280;19522;45.656;11.302;2023-05-23T08:19:03;97976.38;;;25.96;44.15
33161;BME280;19522;45.656;11.302;2023-05-23T08:21:29;97994.63;;;26.02;42.91
33161;BME280;19522;45.656;11.302;2023-05-23T08:23:54;97924.53;;;25.67;43.67
33161;BME280;19522;45.656;11.302;2023-05-23T08:26:20;97990.72;;;26.03;43.37
33161;BME280;19522;45.656;11.302;2023-05-23T08:28:47;97956.47;;;25.89;43.96
33161;BME280;19522;45.656;11.302;2023-05-23T08:31:12;97971.56;;;25.82;41.88
33161;BME280;19522;45.656;11.302;2023-05-23T08:33:38;97916.94;;;25.73;42.19
33161;BME280;19522;45.656;11.302;2023-05-23T08:36:04;97998.56;;;26.20;43.64
33161;BME280;19522;45.656;11.302;2023-05-23T08:38:29;97988.66;;;26.14;40.85
33161;BME280;19522;45.656;11.302;2023-05-23T08:40:59;97916.63;;;25.74;44.37
33161;BME280;19522;45.656;11.302;2023-05-23T08:43:25;97895.06;;;25.66;41.94
33161;BME280;19522;45.656;11.302;2023-05-23T08:45:52;97984.19;;;26.32;43.72
33161;BME280;19522;45.656;11.302;2023-05-23T08:48:19;97904.53;;;25.84;42.71
33161;BME280;19522;45.656;11.302;2023-05-23T08:50:46;97941.00;;;26.21;42.22
33161;BME280;19522;45.656;11.302;2023-05-23T08:53:16;97979.56;;;26.41;39.71
33161;BME280;19522;45.656;11.302;2023-05-23T08:55:50;97959.13;;;26.32;41.15
33161;BME280;19522;45.656;11.302;2023-05-23T08:58:19;97984.72;;;26.34;40.39
33161;BME280;19522;45.656;11.302;2023-05-23T09:00:50;97980.22;;;26.38;42.59
33161;BME280;19522;45.656;11.302;2023-05-23T09:03:17;97958.53;;;26.35;43.12
33161;BME280;19522;45.656;11.302;2023-05-23T09:05:43;97958.53;;;26.35;41.49
33161;BME280;19522;45.656;11.302;2023-05-23T09:08:08;97959.00;;;26.04;40.67
33161;BME280;19522;45.656;11.302;2023-05-23T09:10:34;97907.31;;;25.65;41.52
33161;BME280;19522;45.656;11.302;2023-05-23T09:13:00;97975.63;;;26.28;43.07
33161;BME280;19522;45.656;11.302;2023-05-23T09:15:26;97963.50;;;26.38;41.34
33161;BME280;19522;45.656;11.302;2023-05-23T09:17:58;97928.19;;;26.20;42.34
33161;BME280;19522;45.656;11.302;2023-05-23T09:20:27;97968.97;;;26.77;43.20
33161;BME280;19522;45.656;11.302;2023-05-23T09:22:53;97962.63;;;26.57;42.06
33161;BME280;19522;45.656;11.302;2023-05-23T09:25:19;97976.88;;;26.69;42.85
33161;BME280;19522;45.656;11.302;2023-05-23T09:27:45;97970.66;;;26.78;42.20
33161;BME280;19522;45.656;11.302;2023-05-23T09:30:12;97887.44;;;26.43;42.46
33161;BME280;19522;45.656;11.302;2023-05-23T09:32:38;97972.31;;;26.79;42.49
33161;BME280;19522;45.656;11.302;2023-05-23T09:35:05;97887.50;;;26.24;43.79
33161;BME280;19522;45.656;11.302;2023-05-23T09:37:39;97979.84;;;26.92;45.86
33161;BME280;19522;45.656;11.302;2023-05-23T09:40:09;97965.28;;;26.95;42.45
33161;BME280;19522;45.656;11.302;2023-05-23T09:42:41;97969.25;;;26.75;42.18
33161;BME280;19522;45.656;11.302;2023-05-23T09:45:07;97968.63;;;26.64;42.29
33161;BME280;19522;45.656;11.302;2023-05-23T09:47:33;97973.13;;;26.79;42.82
33161;BME280;19522;45.656;11.302;2023-05-23T09:49:58;97877.59;;;26.18;41.53
33161;BME280;19522;45.656;11.302;2023-05-23T09:52:24;97970.22;;;26.84;41.79
33161;BME280;19522;45.656;11.302;2023-05-23T09:54:50;97894.63;;;26.30;41.53
33161;BME280;19522;45.656;11.302;2023-05-23T09:57:15;97889.69;;;26.41;43.86
33161;BME280;19522;45.656;11.302;2023-05-23T09:59:45;97959.94;;;27.13;40.94
33161;BME280;19522;45.656;11.302;2023-05-23T10:02:16;97954.97;;;27.24;41.74
33161;BME280;19522;45.656;11.302;2023-05-23T10:04:42;97963.25;;;27.15;41.22
33161;BME280;19522;45.656;11.302;2023-05-23T10:07:19;97939.28;;;27.00;40.44
33161;BME280;19522;45.656;11.302;2023-05-23T10:10:02;97879.56;;;26.78;40.48
33161;BME280;19522;45.656;11.302;2023-05-23T10:15:04;97883.47;;;26.91;38.56
33161;BME280;19522;45.656;11.302;2023-05-23T10:20:29;97960.75;;;27.13;37.44
33161;BME280;19522;45.656;11.302;2023-05-23T10:22:58;97906.88;;;27.04;41.09
33161;BME280;19522;45.656;11.302;2023-05-23T10:25:25;97958.19;;;27.45;37.85
33161;BME280;19522;45.656;11.302;2023-05-23T10:27:54;97883.84;;;26.70;37.94
33161;BME280;19522;45.656;11.302;2023-05-23T10:30:26;97911.03;;;26.93;38.73
33161;BME280;19522;45.656;11.302;2023-05-23T10:32:55;97943.94;;;27.32;38.06
33161;BME280;19522;45.656;11.302;2023-05-23T10:35:40;97926.06;;;27.33;36.90
33161;BME280;19522;45.656;11.302;2023-05-23T10:38:14;97918.84;;;27.32;37.70
33161;BME280;19522;45.656;11.302;2023-05-23T10:43:39;97935.91;;;27.81;38.69
33161;BME280;19522;45.656;11.302;2023-05-23T10:46:19;97942.25;;;27.59;37.24
33161;BME280;19522;45.656;11.302;2023-05-23T10:48:45;97944.25;;;27.45;37.08
33161;BME280;19522;45.656;11.302;2023-05-23T10:51:12;97925.94;;;27.38;36.72
33161;BME280;19522;45.656;11.302;2023-05-23T10:53:41;97884.88;;;27.30;36.72
33161;BME280;19522;45.656;11.302;2023-05-23T10:56:08;97903.59;;;27.66;37.97
33161;BME280;19522;45.656;11.302;2023-05-23T10:58:36;97934.81;;;27.68;35.46
33161;BME280;19522;45.656;11.302;2023-05-23T11:01:07;97933.63;;;27.83;37.61
33161;BME280;19522;45.656;11.302;2023-05-23T11:09:10;97945.28;;;27.49;36.48
33161;BME280;19522;45.656;11.302;2023-05-23T11:16:56;97902.41;;;27.81;37.48
33161;BME280;19522;45.656;11.302;2023-05-23T11:19:24;97926.81;;;27.76;37.09
33161;BME280;19522;45.656;11.302;2023-05-23T11:21:54;97858.78;;;27.26;37.62
33161;BME280;19522;45.656;11.302;2023-05-23T11:24:20;97927.47;;;27.73;36.91
33161;BME280;19522;45.656;11.302;2023-05-23T11:26:58;97886.72;;;27.49;37.47
33161;BME280;19522;45.656;11.302;2023-05-23T11:29:31;97922.63;;;27.64;37.17
33161;BME280;19522;45.656;11.302;2023-05-23T11:31:57;97911.97;;;27.66;38.13
33161;BME280;19522;45.656;11.302;2023-05-23T11:34:26;97930.13;;;27.78;36.34
33161;BME280;19522;45.656;11.302;2023-05-23T11:36:53;97891.59;;;27.43;37.21
33161;BME280;19522;45.656;11.302;2023-05-23T11:39:18;97865.56;;;27.48;37.40
33161;BME280;19522;45.656;11.302;2023-05-23T11:41:59;97934.94;;;27.63;35.84
33161;BME280;19522;45.656;11.302;2023-05-23T11:44:25;97858.16;;;27.15;36.44
33161;BME280;19522;45.656;11.302;2023-05-23T11:47:05;97889.31;;;27.31;37.04
33161;BME280;19522;45.656;11.302;2023-05-23T11:49:36;97919.91;;;27.73;37.01
33161;BME280;19522;45.656;11.302;2023-05-23T11:52:05;97705.25;;;26.63;37.59
33161;BME280;19522;45.656;11.302;2023-05-23T11:54:31;97913.16;;;27.88;36.43
33161;BME280;19522;45.656;11.302;2023-05-23T11:57:02;97896.31;;;27.57;36.79
33161;BME280;19522;45.656;11.302;2023-05-23T11:59:32;97873.31;;;27.51;36.79
33161;BME280;19522;45.656;11.302;2023-05-23T12:01:58;97915.19;;;27.96;37.04
33161;BME280;19522;45.656;11.302;2023-05-23T12:04:27;97924.38;;;27.97;36.09
33161;BME280;19522;45.656;11.302;2023-05-23T12:06:57;97867.16;;;27.63;37.45
33161;BME280;19522;45.656;11.302;2023-05-23T12:09:25;97903.78;;;27.84;36.29
33161;BME280;19522;45.656;11.302;2023-05-23T12:11:54;97837.97;;;27.60;35.48
33161;BME280;19522;45.656;11.302;2023-05-23T12:14:22;97908.25;;;28.30;36.75
33161;BME280;19522;45.656;11.302;2023-05-23T12:16:52;97844.56;;;28.10;35.05
33161;BME280;19522;45.656;11.302;2023-05-23T12:19:19;97772.09;;;27.73;35.74
33161;BME280;19522;45.656;11.302;2023-05-23T12:21:47;97852.13;;;28.41;36.17
33161;BME280;19522;45.656;11.302;2023-05-23T12:24:22;97820.19;;;28.24;36.05
33161;BME280;19522;45.656;11.302;2023-05-23T12:26:53;97856.97;;;28.58;37.61
33161;BME280;19522;45.656;11.302;2023-05-23T12:29:30;97904.13;;;28.59;35.19
33161;BME280;19522;45.656;11.302;2023-05-23T12:32:00;97860.91;;;28.25;35.81
33161;BME280;19522;45.656;11.302;2023-05-23T12:34:26;97897.53;;;28.87;36.44
33161;BME280;19522;45.656;11.302;2023-05-23T12:37:02;97870.66;;;29.00;36.88
33161;BME280;19522;45.656;11.302;2023-05-23T12:39:29;97863.69;;;28.88;36.03
33161;BME280;19522;45.656;11.302;2023-05-23T12:42:15;97823.03;;;28.33;35.50
33161;BME280;19522;45.656;11.302;2023-05-23T12:44:41;97875.63;;;28.40;35.70
33161;BME280;19522;45.656;11.302;2023-05-23T12:47:14;97878.09;;;28.19;34.81
33161;BME280;19522;45.656;11.302;2023-05-23T12:49:39;97876.31;;;28.45;36.14
33161;BME280;19522;45.656;11.302;2023-05-23T12:52:06;97859.44;;;28.59;34.72
33161;BME280;19522;45.656;11.302;2023-05-23T12:54:34;97782.13;;;28.28;34.85
33161;BME280;19522;45.656;11.302;2023-05-23T12:57:00;97851.00;;;28.82;34.31
33161;BME280;19522;45.656;11.302;2023-05-23T12:59:26;97855.63;;;28.87;34.39
33161;BME280;19522;45.656;11.302;2023-05-23T13:01:53;97873.91;;;28.93;34.18
33161;BME280;19522;45.656;11.302;2023-05-23T13:04:19;97862.72;;;28.61;34.28
33161;BME280;19522;45.656;11.302;2023-05-23T13:06:48;97879.13;;;28.54;34.33
33161;BME280;19522;45.656;11.302;2023-05-23T13:09:14;97790.25;;;28.16;33.54
33161;BME280;19522;45.656;11.302;2023-05-23T13:11:40;97865.91;;;28.69;33.21
33161;BME280;19522;45.656;11.302;2023-05-23T13:14:06;97863.56;;;29.02;33.75
33161;BME280;19522;45.656;11.302;2023-05-23T13:16:32;97844.16;;;28.97;32.38
33161;BME280;19522;45.656;11.302;2023-05-23T13:19:01;97864.09;;;29.04;30.74